Time;durP1;ratioP1;P1;durP2;ratioP2;P2;SDS_P1;SDS_P2;PMS_P1;PMS_P2;Temp;Humidity;BMP_temperature;BMP_pressure;BME280_temperature;BME280_humidity;BME280_pressure;Samples;Min_cycle;Max_cycle;Signal;HPM_P1;HPM_P2
2023/10/24 00:01:18;;;;;;;;;;;;;;;13.15;52.48;98704.77;67906;1273;1016142;-67
2023/10/24 00:04:21;;;;;;;32.50;12.00;;;;;;;13.10;52.73;98704.05;67896;1273;1016386;-63
2023/10/24 00:07:23;;;;;;;26.90;11.30;;;;;;;13.18;52.40;98701.70;67901;1273;1016496;-65
2023/10/24 00:10:26;;;;;;;26.00;9.40;;;;;;;13.24;52.17;98697.62;67932;1273;1016482;-66
2023/10/24 00:13:28;;;;;;;23.40;9.30;;;;;;;13.19;51.54;98695.20;67933;1273;1016427;-66
2023/10/24 00:16:30;;;;;;;26.50;10.50;;;;;;;13.15;51.96;98696.14;67920;1273;1018846;-68
2023/10/24 00:19:33;;;;;;;22.70;9.10;;;;;;;13.19;52.27;98698.64;67867;1273;1015945;-67
2023/10/24 00:22:35;;;;;;;23.70;9.60;;;;;;;13.26;52.31;98692.17;67898;1273;1017108;-65
2023/10/24 00:25:37;;;;;;;25.60;10.40;;;;;;;13.18;52.44;98689.04;67918;1273;1018534;-65
2023/10/24 00:28:40;;;;;;;32.70;13.50;;;;;;;13.25;52.41;98684.92;67904;1273;1016480;-68
2023/10/24 00:31:42;;;;;;;29.50;11.20;;;;;;;13.27;52.17;98682.81;67950;1273;1017925;-67
2023/10/24 00:34:45;;;;;;;26.40;9.70;;;;;;;13.14;52.29;98683.43;67882;1273;1016416;-67
2023/10/24 00:37:47;;;;;;;25.70;10.10;;;;;;;13.02;52.72;98678.46;67870;1273;1016144;-65
2023/10/24 00:40:49;;;;;;;25.50;9.50;;;;;;;13.04;53.06;98679.62;67871;1273;1016976;-64
2023/10/24 00:43:52;;;;;;;27.70;12.20;;;;;;;13.16;52.75;98685.39;67931;1273;1016957;-67
2023/10/24 00:46:54;;;;;;;28.60;12.40;;;;;;;13.27;53.06;98682.62;67940;1273;1016400;-63
2023/10/24 00:49:56;;;;;;;29.50;11.90;;;;;;;13.43;52.69;98687.63;67915;1273;1016472;-60
2023/10/24 00:52:59;;;;;;;31.40;12.60;;;;;;;13.46;52.47;98686.89;67898;1273;1016446;-64
2023/10/24 00:56:02;;;;;;;23.80;9.90;;;;;;;13.49;52.86;98692.27;67868;1273;1018614;-67
2023/10/24 00:59:04;;;;;;;27.50;12.20;;;;;;;13.69;52.07;98689.19;67931;1273;1019278;-66
2023/10/24 01:02:07;;;;;;;23.70;10.30;;;;;;;13.71;51.89;98685.74;67898;1273;1016449;-66
2023/10/24 01:05:09;;;;;;;23.20;9.30;;;;;;;13.64;51.55;98689.05;67871;1273;1018552;-68
2023/10/24 01:08:11;;;;;;;22.20;8.10;;;;;;;13.55;51.59;98687.47;67875;1273;1018195;-68
2023/10/24 01:11:14;;;;;;;22.80;8.90;;;;;;;13.49;51.52;98686.60;67914;1273;1017894;-66
2023/10/24 01:14:16;;;;;;;26.10;11.80;;;;;;;13.46;51.33;98686.30;67931;1273;1019021;-68
2023/10/24 01:17:19;;;;;;;29.50;12.80;;;;;;;13.19;52.09;98680.43;67699;1273;1279334;-67
2023/10/24 01:20:21;;;;;;;31.40;13.50;;;;;;;13.25;52.09;98678.73;67886;1273;1016437;-68
2023/10/24 01:23:23;;;;;;;33.10;14.70;;;;;;;13.19;52.15;98673.73;67881;1273;1016443;-66
2023/10/24 01:26:26;;;;;;;33.70;16.60;;;;;;;13.15;52.23;98677.89;67918;1273;1016419;-67
2023/10/24 01:29:28;;;;;;;32.20;16.30;;;;;;;13.12;52.15;98672.50;67921;1273;1016264;-67
2023/10/24 01:32:31;;;;;;;;;;;;;;;13.10;52.28;98669.66;67866;1273;1017732;-66
2023/10/24 01:35:33;;;;;;;37.80;13.00;;;;;;;13.00;52.22;98665.50;67891;1273;1016758;-67
2023/10/24 01:38:36;;;;;;;58.90;21.10;;;;;;;12.90;52.29;98664.09;67914;1273;1016480;-68
2023/10/24 01:41:38;;;;;;;30.40;11.80;;;;;;;12.75;52.85;98660.12;67942;1273;1019321;-66
2023/10/24 01:44:40;;;;;;;25.30;10.50;;;;;;;12.75;52.72;98657.80;67958;1273;1016301;-63
2023/10/24 01:47:43;;;;;;;23.20;9.70;;;;;;;12.58;52.64;98650.10;67906;1273;1016456;-67
2023/10/24 01:50:45;;;;;;;24.10;10.80;;;;;;;12.49;52.88;98653.19;67903;1273;1016556;-68
2023/10/24 01:53:48;;;;;;;26.30;10.70;;;;;;;12.37;53.42;98646.70;67881;1273;1016460;-68
2023/10/24 01:56:50;;;;;;;25.30;10.80;;;;;;;12.39;53.64;98643.88;67947;1273;1016596;-65
2023/10/24 01:59:53;;;;;;;24.40;10.10;;;;;;;12.26;53.93;98642.38;67931;1273;1016369;-68
2023/10/24 02:02:55;;;;;;;25.30;10.00;;;;;;;12.17;54.10;98643.52;67874;1273;1016441;-64
2023/10/24 02:05:58;;;;;;;23.70;9.40;;;;;;;12.24;53.58;98640.39;67869;1273;1016044;-67
2023/10/24 02:09:00;;;;;;;23.80;9.20;;;;;;;12.11;53.76;98636.05;67901;1273;1016061;-64
2023/10/24 02:12:02;;;;;;;26.10;10.90;;;;;;;12.05;54.22;98630.69;67907;1273;1016398;-68
2023/10/24 02:15:05;;;;;;;26.60;11.20;;;;;;;12.10;54.44;98629.63;67931;1273;1016159;-67
2023/10/24 02:18:08;;;;;;;23.70;9.40;;;;;;;12.15;54.40;98630.16;67864;1273;1016475;-67
2023/10/24 02:21:10;;;;;;;24.40;9.60;;;;;;;12.17;54.40;98624.96;67938;1273;1016412;-68
2023/10/24 02:24:13;;;;;;;25.80;9.90;;;;;;;12.20;54.44;98623.33;67938;1273;1016213;-60
2023/10/24 02:27:15;;;;;;;22.80;8.90;;;;;;;12.27;54.46;98620.95;67891;1273;1016407;-66
2023/10/24 02:30:18;;;;;;;23.30;9.30;;;;;;;12.32;54.37;98616.65;67889;1250;1016505;-66
2023/10/24 02:33:20;;;;;;;23.70;9.70;;;;;;;12.34;53.91;98610.95;67899;1273;1018617;-67
2023/10/24 02:36:23;;;;;;;27.10;10.80;;;;;;;12.40;54.11;98606.49;67941;1273;1016344;-64
2023/10/24 02:39:25;;;;;;;23.60;9.50;;;;;;;12.47;54.32;98607.92;67938;1273;1016438;-68
2023/10/24 02:42:28;;;;;;;23.50;9.70;;;;;;;12.46;53.70;98606.24;67888;1273;1016124;-65
2023/10/24 02:45:30;;;;;;;22.80;9.30;;;;;;;12.40;54.40;98605.91;67900;1273;1016411;-67
2023/10/24 02:48:32;;;;;;;23.20;9.60;;;;;;;12.49;54.49;98604.46;67876;1273;1016444;-64
2023/10/24 02:51:36;;;;;;;23.00;8.90;;;;;;;12.60;54.39;98602.98;67923;1273;1016191;-66
2023/10/24 02:54:38;;;;;;;23.20;9.20;;;;;;;12.57;54.03;98608.23;67864;1273;1016371;-64
2023/10/24 02:57:40;;;;;;;25.40;10.70;;;;;;;12.64;54.71;98603.17;67871;1273;1016441;-67
2023/10/24 03:00:43;;;;;;;24.70;10.00;;;;;;;12.73;54.57;98599.54;67903;1273;1016456;-65
2023/10/24 03:03:45;;;;;;;26.60;10.80;;;;;;;12.68;53.93;98595.02;67926;1273;1016346;-67
2023/10/24 03:06:48;;;;;;;23.30;9.30;;;;;;;12.51;54.20;98599.88;67912;1273;1016448;-59
2023/10/24 03:09:50;;;;;;;23.20;8.80;;;;;;;12.52;54.26;98602.50;67864;1273;1016288;-68
2023/10/24 03:12:53;;;;;;;22.50;8.40;;;;;;;12.56;53.80;98602.23;67900;1273;1016490;-68
2023/10/24 03:15:55;;;;;;;26.10;10.70;;;;;;;12.64;53.69;98604.92;67942;1273;1016313;-67
2023/10/24 03:18:59;;;;;;;23.00;8.90;;;;;;;12.72;53.60;98600.30;67880;1273;1016315;-67
2023/10/24 03:22:02;;;;;;;21.90;9.00;;;;;;;12.88;53.29;98593.02;67893;1273;1018077;-68
2023/10/24 03:25:04;;;;;;;24.30;9.80;;;;;;;12.97;52.83;98593.41;67879;1273;1016453;-68
2023/10/24 03:28:07;;;;;;;23.60;9.80;;;;;;;12.89;52.98;98592.93;67876;1273;1018135;-68
2023/10/24 03:31:09;;;;;;;23.70;10.60;;;;;;;12.73;53.53;98582.69;67898;1273;1016417;-68
2023/10/24 03:34:11;;;;;;;27.00;11.60;;;;;;;12.74;53.72;98588.04;67936;1273;1016054;-68
2023/10/24 03:37:15;;;;;;;23.70;8.90;;;;;;;12.87;53.60;98579.71;67889;1273;1016443;-68
2023/10/24 03:40:18;;;;;;;23.90;8.70;;;;;;;13.09;53.33;98573.56;67927;1273;1016136;-68
2023/10/24 03:43:21;;;;;;;27.00;10.00;;;;;;;12.96;53.39;98567.30;67923;1273;1016485;-68
2023/10/24 03:46:23;;;;;;;27.30;10.90;;;;;;;12.98;53.76;98571.54;67856;1273;1016918;-69
2023/10/24 03:49:26;;;;;;;26.60;11.40;;;;;;;13.02;54.00;98571.27;67877;1273;1016267;-68
2023/10/24 03:52:28;;;;;;;30.00;13.20;;;;;;;13.12;54.25;98581.08;67888;1273;1016966;-66
2023/10/24 03:55:31;;;;;;;28.60;12.50;;;;;;;13.29;54.43;98590.67;67905;1273;1016356;-68
2023/10/24 03:58:33;;;;;;;27.90;11.60;;;;;;;13.43;54.58;98588.20;67938;1273;1016288;-68
2023/10/24 04:01:36;;;;;;;;;;;;;;;13.50;55.19;98566.73;67914;1273;1016224;-68
2023/10/24 04:04:38;;;;;;;33.20;14.40;;;;;;;13.71;55.87;98556.06;67903;1273;1016438;-68
2023/10/24 04:07:41;;;;;;;31.80;13.90;;;;;;;13.89;55.75;98564.80;67885;1273;1016403;-68
2023/10/24 04:10:43;;;;;;;36.40;15.50;;;;;;;14.07;55.84;98578.15;67921;1273;1016408;-67
2023/10/24 04:13:46;;;;;;;32.40;15.80;;;;;;;14.21;56.05;98578.98;67926;1273;1016342;-67
2023/10/24 04:16:50;;;;;;;31.40;15.40;;;;;;;14.36;55.98;98583.09;67907;1273;1016068;-67
2023/10/24 04:19:53;;;;;;;41.40;17.80;;;;;;;14.54;55.64;98598.14;67864;1273;1016382;-67
2023/10/24 04:22:55;;;;;;;37.80;16.90;;;;;;;14.65;55.82;98588.85;67918;1273;1016406;-68
2023/10/24 04:25:57;;;;;;;37.00;16.20;;;;;;;14.70;55.79;98575.05;67918;1273;1018072;-65
2023/10/24 04:29:00;;;;;;;35.70;16.30;;;;;;;14.64;55.97;98572.05;67910;1273;1016392;-68
2023/10/24 04:32:03;;;;;;;36.00;15.60;;;;;;;14.67;56.04;98568.15;67888;1273;1016239;-68
2023/10/24 04:35:06;;;;;;;32.10;15.40;;;;;;;14.69;56.15;98570.90;67915;1273;1016285;-62
2023/10/24 04:38:09;;;;;;;29.10;13.90;;;;;;;14.67;56.41;98571.77;67896;1273;1016560;-68
2023/10/24 04:41:11;;;;;;;31.80;13.90;;;;;;;14.73;56.38;98572.20;67920;1273;1016422;-68
2023/10/24 04:44:13;;;;;;;29.40;13.50;;;;;;;14.86;56.02;98570.77;67932;1273;1016249;-67
2023/10/24 04:47:16;;;;;;;27.40;12.90;;;;;;;15.05;55.73;98563.23;67904;1273;1016545;-68
2023/10/24 04:50:18;;;;;;;30.60;12.40;;;;;;;15.17;55.63;98557.34;67884;1273;1018574;-66
2023/10/24 04:53:21;;;;;;;30.10;13.60;;;;;;;15.13;55.63;98555.55;67867;1273;1016341;-68
2023/10/24 04:56:24;;;;;;;31.00;13.20;;;;;;;15.11;55.84;98558.36;67864;1273;1016470;-68
2023/10/24 04:59:26;;;;;;;31.50;13.50;;;;;;;15.19;55.56;98554.85;67832;1273;1016149;-68
2023/10/24 05:02:29;;;;;;;27.40;12.80;;;;;;;15.21;55.49;98546.04;67894;1273;1016416;-62
2023/10/24 05:05:31;;;;;;;26.90;12.30;;;;;;;15.14;55.63;98533.45;67924;1273;1016388;-67
2023/10/24 05:08:34;;;;;;;27.90;11.70;;;;;;;15.23;55.47;98536.58;67937;1273;1016402;-67
2023/10/24 05:11:39;;;;;;;26.50;11.40;;;;;;;15.19;55.46;98521.93;67908;1273;1017867;-68
2023/10/24 05:14:42;;;;;;;24.50;10.90;;;;;;;15.11;55.66;98515.88;67928;1273;1016360;-66
2023/10/24 05:17:44;;;;;;;25.10;10.90;;;;;;;15.11;55.61;98513.98;67925;1273;1018069;-66
2023/10/24 05:20:47;;;;;;;25.40;11.10;;;;;;;15.06;55.85;98514.67;67853;1273;1016337;-68
2023/10/24 05:23:49;;;;;;;28.90;11.20;;;;;;;15.08;55.87;98510.13;67904;1273;1016526;-65
2023/10/24 05:26:52;;;;;;;25.50;11.70;;;;;;;15.14;55.87;98514.27;67875;1273;1018809;-67
2023/10/24 05:29:54;;;;;;;28.90;13.00;;;;;;;15.13;56.05;98516.23;67925;1273;1016338;-64
2023/10/24 05:32:58;;;;;;;28.60;12.30;;;;;;;15.22;55.75;98520.46;67949;1273;1016383;-68
2023/10/24 05:36:00;;;;;;;28.30;12.50;;;;;;;15.32;55.60;98525.20;67926;1273;1016824;-66
2023/10/24 05:39:03;;;;;;;27.40;12.10;;;;;;;15.35;55.60;98534.64;67893;1273;1016058;-67
2023/10/24 05:42:05;;;;;;;28.60;13.40;;;;;;;15.37;55.71;98548.25;67924;1273;1018882;-68
2023/10/24 05:45:08;;;;;;;29.70;13.60;;;;;;;15.42;55.85;98565.05;67917;1273;1017509;-66
2023/10/24 05:48:10;;;;;;;30.40;14.00;;;;;;;15.60;55.43;98570.21;67903;1273;1016707;-67
2023/10/24 05:51:12;;;;;;;30.00;13.60;;;;;;;15.78;55.25;98568.85;67918;1273;1016487;-67
2023/10/24 05:54:15;;;;;;;28.20;13.90;;;;;;;15.96;55.23;98563.28;67862;1273;1016339;-67
2023/10/24 05:57:17;;;;;;;29.60;13.40;;;;;;;16.01;55.00;98557.92;67920;1273;1016668;-68
2023/10/24 06:00:20;;;;;;;31.90;13.30;;;;;;;15.99;55.14;98574.45;67886;1273;1018827;-67
2023/10/24 06:03:22;;;;;;;29.60;13.00;;;;;;;16.08;55.28;98580.73;67912;1273;1016129;-67
2023/10/24 06:06:25;;;;;;;28.30;12.90;;;;;;;16.16;55.06;98577.55;67918;1273;1016089;-67
2023/10/24 06:09:27;;;;;;;25.50;11.30;;;;;;;16.25;54.93;98575.06;67893;1273;1016160;-66
2023/10/24 06:12:30;;;;;;;27.00;12.00;;;;;;;16.38;55.06;98577.77;67868;1273;1017000;-66
2023/10/24 06:15:32;;;;;;;27.70;11.80;;;;;;;16.48;54.98;98582.86;67860;1273;1016001;-66
2023/10/24 06:18:35;;;;;;;29.40;12.10;;;;;;;16.61;54.88;98586.27;67907;1273;1018781;-67
2023/10/24 06:21:37;;;;;;;26.70;11.90;;;;;;;16.76;54.72;98580.90;64083;1273;2003418;-68
2023/10/24 06:24:41;;;;;;;28.80;12.10;;;;;;;16.75;54.69;98569.89;51448;1273;2015891;-68
2023/10/24 06:27:44;;;;;;;26.50;11.90;;;;;;;16.82;54.52;98554.96;52914;1273;2015541;-67
2023/10/24 06:30:47;;;;;;;27.20;11.90;;;;;;;16.75;54.47;98548.84;50550;1273;2016330;-68
2023/10/24 06:33:50;;;;;;;27.60;12.80;;;;;;;16.81;54.39;98541.27;51256;1273;2015821;-68
2023/10/24 06:36:52;;;;;;;29.40;12.80;;;;;;;16.83;54.42;98532.44;52028;1273;2018018;-68
2023/10/24 06:40:01;;;;;;;29.60;12.50;;;;;;;16.92;54.54;98530.38;50683;1273;2016369;-68
2023/10/24 06:43:05;;;;;;;27.50;12.20;;;;;;;17.11;53.98;98533.41;51273;1273;2015964;-67
2023/10/24 06:46:07;;;;;;;28.00;13.10;;;;;;;17.09;53.92;98529.20;50569;1273;2015949;-68
2023/10/24 06:49:11;;;;;;;29.60;12.70;;;;;;;17.01;53.72;98514.22;51405;1273;2016127;-67
2023/10/24 06:52:14;;;;;;;25.70;11.70;;;;;;;17.02;53.93;98514.11;52196;1273;2016395;-67
2023/10/24 06:55:16;;;;;;;26.10;11.40;;;;;;;17.22;53.95;98520.06;52196;1273;2015668;-68
2023/10/24 06:58:19;;;;;;;25.50;11.70;;;;;;;17.39;53.60;98523.08;51251;1273;2015374;-66
2023/10/24 07:01:22;;;;;;;26.60;11.20;;;;;;;17.52;53.52;98514.24;50669;1273;2015980;-68
2023/10/24 07:04:25;;;;;;;28.50;11.50;;;;;;;17.62;53.59;98522.09;51450;1264;2018092;-68
2023/10/24 07:07:29;;;;;;;;;;;;;;;17.78;53.55;98533.20;53701;1273;2016276;-67
2023/10/24 07:10:33;;;;;;;26.40;11.60;;;;;;;17.92;53.68;98533.98;53501;1273;2016847;-67
2023/10/24 07:13:37;;;;;;;28.50;11.30;;;;;;;18.13;53.59;98530.79;50672;1273;2016387;-68
2023/10/24 07:16:39;;;;;;;25.20;11.30;;;;;;;18.33;52.99;98528.65;50686;1273;2016339;-68
2023/10/24 07:19:42;;;;;;;26.60;11.60;;;;;;;18.39;53.20;98527.88;50529;1273;2016039;-68
2023/10/24 07:22:44;;;;;;;27.70;11.70;;;;;;;18.51;52.89;98529.19;51401;1273;2016119;-68
2023/10/24 07:25:48;;;;;;;;;;;;;;;18.46;53.14;98525.62;52190;1273;2016398;-68
2023/10/24 07:28:50;;;;;;;27.20;11.50;;;;;;;18.56;53.00;98521.60;51996;1273;2015943;-68
2023/10/24 07:31:54;;;;;;;27.80;12.80;;;;;;;18.51;52.99;98521.06;52956;1273;2016061;-68
2023/10/24 07:34:57;;;;;;;25.80;12.60;;;;;;;18.47;53.36;98523.77;63565;1273;2015313;-68
2023/10/24 07:37:59;;;;;;;27.50;12.60;;;;;;;18.61;53.40;98520.16;67932;1273;1016310;-68
2023/10/24 07:41:02;;;;;;;26.30;12.40;;;;;;;18.68;52.97;98516.86;67884;1273;1016429;-67
2023/10/24 07:44:05;;;;;;;28.40;13.30;;;;;;;18.67;53.13;98512.86;67862;1273;1018781;-68
2023/10/24 07:47:08;;;;;;;27.50;13.20;;;;;;;18.79;53.41;98509.55;67934;1273;1016447;-68
2023/10/24 07:50:10;;;;;;;27.90;12.80;;;;;;;18.97;53.17;98504.08;67927;1273;1016053;-68
2023/10/24 07:53:12;;;;;;;28.30;12.70;;;;;;;19.03;52.92;98490.42;67870;1273;1016361;-67
2023/10/24 07:56:15;;;;;;;27.30;12.70;;;;;;;18.96;52.85;98481.84;67843;1273;1016575;-66
2023/10/24 07:59:18;;;;;;;28.20;12.80;;;;;;;18.88;52.65;98474.14;67924;1273;1016435;-68
2023/10/24 08:02:20;;;;;;;27.20;12.90;;;;;;;18.99;52.77;98472.19;67889;1273;1016302;-68
2023/10/24 08:05:23;;;;;;;28.90;12.30;;;;;;;19.19;52.88;98457.11;67869;1273;1016411;-68
2023/10/24 08:08:25;;;;;;;28.30;14.70;;;;;;;19.38;52.75;98456.03;67894;1273;1016421;-68
2023/10/24 08:11:28;;;;;;;26.60;12.80;;;;;;;19.55;52.58;98453.52;67929;1273;1015777;-68
2023/10/24 08:14:30;;;;;;;31.70;14.80;;;;;;;19.77;52.24;98448.90;67875;1273;1016508;-68
2023/10/24 08:17:36;;;;;;;31.80;14.40;;;;;;;19.88;52.38;98446.44;67886;1273;1016304;-68
2023/10/24 08:20:38;;;;;;;31.10;14.00;;;;;;;20.12;52.36;98448.64;67845;1273;1016004;-68
2023/10/24 08:23:41;;;;;;;28.60;13.50;;;;;;;20.24;52.11;98453.20;67885;1273;1016581;-65
2023/10/24 08:26:43;;;;;;;25.70;12.30;;;;;;;20.41;52.23;98448.91;67915;1273;1018756;-68
2023/10/24 08:29:46;;;;;;;;;;;;;;;20.56;51.72;98451.02;67922;1273;1016532;-68
2023/10/24 08:32:48;;;;;;;29.30;12.90;;;;;;;20.79;51.92;98449.16;67916;1273;1016242;-68
2023/10/24 08:35:51;;;;;;;;;;;;;;;21.02;51.65;98457.07;67840;1273;1016403;-67
2023/10/24 08:38:53;;;;;;;29.00;12.80;;;;;;;21.16;51.23;98450.61;67914;1273;1016505;-68
2023/10/24 08:41:56;;;;;;;24.00;10.20;;;;;;;21.21;51.39;98434.75;67917;1273;1015972;-68
2023/10/24 08:44:59;;;;;;;26.60;11.80;;;;;;;21.34;50.90;98437.09;67877;1273;1016336;-68
2023/10/24 08:48:02;;;;;;;24.20;10.10;;;;;;;21.34;50.93;98433.94;67894;1273;1016494;-67
2023/10/24 08:51:05;;;;;;;24.20;10.60;;;;;;;21.40;50.59;98419.75;67900;1273;1016179;-68
2023/10/24 08:54:07;;;;;;;22.00;9.60;;;;;;;21.30;50.31;98416.11;67920;1273;1017987;-68
2023/10/24 08:57:10;;;;;;;;;;;;;;;21.52;50.34;98418.65;68025;1273;1016428;-68
2023/10/24 09:00:14;;;;;;;22.90;9.90;;;;;;;21.68;50.27;98416.52;67898;1273;1016366;-68
2023/10/24 09:03:16;;;;;;;23.00;9.30;;;;;;;21.69;50.52;98420.29;67931;1273;1016550;-67
2023/10/24 09:06:20;;;;;;;23.20;9.50;;;;;;;21.83;50.29;98421.19;67894;1273;1015687;-68
2023/10/24 09:09:23;;;;;;;22.20;9.10;;;;;;;21.97;49.78;98421.77;67881;1273;1016452;-67
2023/10/24 09:12:25;;;;;;;22.70;8.80;;;;;;;22.08;49.42;98421.19;67877;1273;1016005;-67
2023/10/24 09:15:30;;;;;;;;;;;;;;;22.02;49.09;98418.36;67906;1273;1016330;-67
2023/10/24 09:18:33;;;;;;;22.60;9.10;;;;;;;21.96;49.24;98416.73;67882;1273;1016468;-67
2023/10/24 09:21:35;;;;;;;;;;;;;;;22.02;49.29;98417.02;67882;1273;1016334;-68
2023/10/24 09:24:38;;;;;;;21.00;8.50;;;;;;;22.12;49.69;98414.31;67894;1273;1016557;-68
2023/10/24 09:27:40;;;;;;;22.20;9.20;;;;;;;22.30;49.99;98409.47;67928;1273;1018156;-68
2023/10/24 09:30:43;;;;;;;21.90;8.50;;;;;;;22.60;49.52;98398.23;67925;1273;1016470;-67
2023/10/24 09:33:45;;;;;;;24.30;8.30;;;;;;;22.83;48.83;98389.70;67859;1273;1018960;-68
2023/10/24 09:36:48;;;;;;;;;;;;;;;22.84;47.94;98384.90;67906;1273;1016473;-69
2023/10/24 09:39:50;;;;;;;;;;;;;;;22.67;48.30;98385.58;67917;1273;1017373;-68
2023/10/24 09:42:53;;;;;;;25.00;11.50;;;;;;;22.36;48.37;98383.10;67930;1273;1016623;-67
2023/10/24 09:45:56;;;;;;;24.70;10.60;;;;;;;22.38;48.96;98375.55;67876;1273;1016484;-67
2023/10/24 09:48:58;;;;;;;23.40;10.20;;;;;;;22.59;49.25;98371.45;67913;1273;1016364;-67
2023/10/24 09:52:02;;;;;;;24.90;10.20;;;;;;;22.75;48.82;98374.23;67886;1273;1017150;-68
2023/10/24 09:55:08;;;;;;;27.30;11.20;;;;;;;22.93;48.69;98375.83;68026;1273;1016849;-67
2023/10/24 09:58:10;;;;;;;22.00;8.90;;;;;;;23.00;47.84;98373.64;67901;1273;1016418;-69
2023/10/24 10:01:15;;;;;;;;;;;;;;;22.77;47.85;98378.29;67920;1273;1016363;-68
2023/10/24 10:04:18;;;;;;;25.00;10.40;;;;;;;22.72;48.11;98364.45;67889;1250;1016435;-67
2023/10/24 10:07:21;;;;;;;;;;;;;;;22.67;48.28;98348.71;67936;1273;1017576;-68
2023/10/24 10:10:25;;;;;;;24.10;9.00;;;;;;;22.70;48.20;98338.17;67891;1273;1015754;-68
2023/10/24 10:13:30;;;;;;;22.60;9.30;;;;;;;22.81;47.95;98331.46;67855;1273;1016023;-68
2023/10/24 10:16:32;;;;;;;28.90;11.80;;;;;;;22.99;47.88;98334.48;67895;1251;1016381;-68
2023/10/24 10:19:35;;;;;;;;;;;;;;;23.19;47.41;98328.75;67903;1273;1016816;-68
2023/10/24 10:22:37;;;;;;;23.50;9.40;;;;;;;23.33;47.76;98331.14;67922;1273;1016272;-68
2023/10/24 10:25:40;;;;;;;25.10;10.10;;;;;;;23.54;47.79;98333.52;67934;1273;1016100;-68
2023/10/24 10:28:42;;;;;;;;;;;;;;;23.85;47.45;98334.27;67893;1273;1016022;-67
2023/10/24 10:31:45;;;;;;;22.10;9.40;;;;;;;24.49;46.96;98344.52;67890;1273;1016471;-68
2023/10/24 10:34:47;;;;;;;25.20;10.40;;;;;;;24.77;46.46;98340.03;67913;1273;1016432;-67
2023/10/24 10:37:50;;;;;;;23.70;10.00;;;;;;;24.93;46.08;98332.66;67909;1273;1016468;-68
2023/10/24 10:40:52;;;;;;;;;;;;;;;25.02;45.97;98329.40;67888;1273;1016124;-68
2023/10/24 10:43:54;;;;;;;22.60;9.50;;;;;;;24.77;45.36;98332.61;67817;1273;1016390;-67
2023/10/24 10:46:57;;;;;;;;;;;;;;;24.50;46.09;98319.36;67916;1273;1018181;-68
2023/10/24 10:49:59;;;;;;;22.10;9.20;;;;;;;24.41;45.88;98305.62;67921;1273;1016320;-64
2023/10/24 10:53:02;;;;;;;;;;;;;;;24.28;45.49;98301.72;67947;1273;1016476;-68
2023/10/24 10:56:05;;;;;;;23.70;9.50;;;;;;;24.14;45.94;98296.42;67908;1273;1016365;-67
2023/10/24 10:59:07;;;;;;;22.80;9.80;;;;;;;23.98;46.04;98295.27;67958;1273;1016642;-67
2023/10/24 11:02:10;;;;;;;23.00;9.20;;;;;;;24.07;46.42;98292.98;67920;1273;1016465;-68
2023/10/24 11:05:12;;;;;;;;;;;;;;;24.16;46.30;98287.74;67881;1273;1016210;-66
2023/10/24 11:08:17;;;;;;;23.80;8.80;;;;;;;24.36;46.23;98282.70;67890;1273;1016435;-67
2023/10/24 11:11:20;;;;;;;22.30;9.20;;;;;;;24.53;46.09;98273.75;67856;1273;1016414;-67
2023/10/24 11:14:22;;;;;;;23.30;9.10;;;;;;;24.73;45.82;98266.00;67881;1273;1016399;-67
2023/10/24 11:17:25;;;;;;;21.10;9.00;;;;;;;24.73;44.76;98259.02;67898;1273;1016660;-66
2023/10/24 11:20:27;;;;;;;23.30;8.80;;;;;;;24.71;45.06;98248.30;67912;1273;1016072;-68
2023/10/24 11:23:30;;;;;;;24.70;9.60;;;;;;;24.85;45.72;98246.30;67894;1273;1016170;-68
2023/10/24 11:26:33;;;;;;;22.40;9.10;;;;;;;25.13;45.57;98251.23;67844;1273;1016154;-67
2023/10/24 11:29:36;;;;;;;22.00;9.00;;;;;;;25.49;45.20;98247.34;67916;1273;1019613;-67
2023/10/24 11:32:38;;;;;;;20.40;8.40;;;;;;;25.72;45.05;98245.64;67858;1273;1016397;-65
2023/10/24 11:35:41;;;;;;;20.70;8.50;;;;;;;25.70;44.48;98246.46;67886;1273;1016468;-68
2023/10/24 11:38:43;;;;;;;22.50;9.10;;;;;;;25.72;44.81;98251.35;67903;1273;1016110;-68
2023/10/24 11:41:46;;;;;;;;;;;;;;;25.54;43.99;98246.90;67894;1273;1016100;-65
2023/10/24 11:44:49;;;;;;;20.20;7.10;;;;;;;25.27;44.49;98241.66;67842;1273;1016003;-67
2023/10/24 11:47:55;;;;;;;;;;;;;;;25.44;45.17;98238.08;67905;1273;1015983;-64
2023/10/24 11:50:57;;;;;;;19.00;7.00;;;;;;;25.53;44.79;98235.38;67876;1273;1016243;-66
2023/10/24 11:54:00;;;;;;;19.00;7.10;;;;;;;25.54;44.29;98232.62;67910;1273;1018237;-68
2023/10/24 11:57:03;;;;;;;18.00;6.30;;;;;;;25.35;44.44;98230.44;67919;1273;1016439;-68
2023/10/24 12:00:06;;;;;;;18.80;6.00;;;;;;;25.27;44.61;98217.14;67924;1273;1016415;-68
2023/10/24 12:03:09;;;;;;;18.80;6.00;;;;;;;25.51;44.88;98205.67;67892;1273;1016429;-68
2023/10/24 12:06:11;;;;;;;19.00;6.10;;;;;;;25.71;44.38;98203.83;67939;1273;1016043;-68
2023/10/24 12:09:14;;;;;;;18.00;6.00;;;;;;;25.67;43.85;98198.70;67926;1273;1016200;-68
2023/10/24 12:12:16;;;;;;;;;;;;;;;25.63;44.24;98190.65;67922;1273;1016835;-68
2023/10/24 12:15:19;;;;;;;18.30;5.80;;;;;;;25.72;43.86;98181.89;67898;1273;1016243;-67
2023/10/24 12:18:22;;;;;;;18.20;5.80;;;;;;;25.66;44.27;98185.05;67925;1273;1016212;-65
2023/10/24 12:21:24;;;;;;;15.90;5.10;;;;;;;25.58;43.62;98196.30;67920;1273;1016265;-67
2023/10/24 12:24:27;;;;;;;15.80;5.10;;;;;;;25.58;43.99;98200.36;67877;1273;1016186;-67
2023/10/24 12:27:29;;;;;;;18.30;5.60;;;;;;;25.52;43.86;98192.34;67875;1273;1016224;-67
2023/10/24 12:30:31;;;;;;;;;;;;;;;25.48;43.77;98193.33;67926;1273;1019218;-68
2023/10/24 12:33:34;;;;;;;16.80;5.00;;;;;;;25.48;43.81;98186.63;67940;1273;1016476;-67
2023/10/24 12:36:36;;;;;;;;;;;;;;;25.52;44.40;98180.61;67899;1273;1016629;-68
2023/10/24 12:39:39;;;;;;;15.40;5.10;;;;;;;25.56;44.08;98180.08;67888;1273;1016486;-65
2023/10/24 12:42:41;;;;;;;16.60;5.50;;;;;;;25.67;44.07;98182.89;67885;1273;1016557;-67
2023/10/24 12:45:44;;;;;;;17.20;5.60;;;;;;;25.82;43.91;98177.17;67963;1273;1016206;-64
2023/10/24 12:48:46;;;;;;;18.30;5.40;;;;;;;25.82;43.71;98167.44;67893;1273;1016245;-66
2023/10/24 12:51:48;;;;;;;;;;;;;;;25.76;43.87;98160.52;67869;1273;1016865;-67
2023/10/24 12:54:51;;;;;;;14.90;5.10;;;;;;;25.68;43.61;98159.92;67860;1273;1016201;-66
2023/10/24 12:57:53;;;;;;;;;;;;;;;25.67;43.76;98158.96;67865;1273;1015912;-67
2023/10/24 13:00:56;;;;;;;17.50;5.10;;;;;;;25.69;43.40;98143.31;67893;1273;1016305;-67
2023/10/24 13:03:58;;;;;;;16.80;5.60;;;;;;;25.72;43.93;98131.77;67920;1273;1016421;-66
2023/10/24 13:07:04;;;;;;;;;;;;;;;25.74;44.07;98120.33;67890;1273;1016520;-65
2023/10/24 13:10:07;;;;;;;15.80;5.20;;;;;;;25.82;43.85;98111.48;67913;1273;1016131;-67
2023/10/24 13:13:09;;;;;;;16.50;5.00;;;;;;;25.81;43.60;98104.04;67856;1273;1016678;-67
2023/10/24 13:16:12;;;;;;;;;;;;;;;25.70;43.61;98099.32;67646;1273;1016458;-67
2023/10/24 13:19:15;;;;;;;16.80;5.30;;;;;;;25.54;44.05;98096.11;67888;1273;1016461;-67
2023/10/24 13:22:17;;;;;;;17.10;5.50;;;;;;;25.49;44.26;98087.31;67871;1273;1017965;-67
2023/10/24 13:25:20;;;;;;;19.60;5.90;;;;;;;25.52;43.99;98080.05;67872;1273;1016014;-66
2023/10/24 13:28:24;;;;;;;;;;;;;;;25.33;44.06;98076.00;67953;1273;1016408;-67
2023/10/24 13:31:26;;;;;;;17.70;5.40;;;;;;;25.23;44.43;98074.74;67894;1273;1017130;-67
2023/10/24 13:34:29;;;;;;;17.80;5.50;;;;;;;25.19;44.39;98070.63;67931;1273;1016484;-67
2023/10/24 13:37:31;;;;;;;17.70;5.70;;;;;;;25.02;44.57;98070.77;67894;1257;1016264;-67
2023/10/24 13:40:34;;;;;;;;;;;;;;;24.91;44.86;98075.30;67871;1273;1015930;-67
2023/10/24 13:43:36;;;;;;;;;;;;;;;24.79;44.98;98072.39;67917;1273;1016077;-67
2023/10/24 13:46:39;;;;;;;17.50;5.30;;;;;;;24.58;45.18;98064.18;67925;1273;1016397;-67
2023/10/24 13:49:41;;;;;;;;;;;;;;;24.47;45.42;98059.58;67887;1273;1016266;-67
2023/10/24 13:52:44;;;;;;;16.10;5.20;;;;;;;24.23;45.77;98054.27;67872;1273;1016797;-67
2023/10/24 13:55:47;;;;;;;17.60;5.80;;;;;;;24.12;46.02;98057.65;67937;1273;1016314;-66